Feyz Commander — H3EG — position and weather

sailwx.info

Track history (hours):
 
Tides and Currents Weather Stations Pressure Air Temp Water Temp Dewpoint Dewpoint Depression Visibility Wind Speed Wind Dir Waves Ship Positions

Feyz Commander

Last reported at 2018-Feb-17 22:06 UTC. Time now 2018-Feb-24 02:36 UTC.
Position N 37°50' E 025°42'.

Length 93 m; draft 6 m.

Type: Cargo ship. MMSI: 357297000.

Date/timePositionNaut miles runAvg speedWind from/ knotsBaromVisibWave heightAir tempDewpointWater temp
2018-Feb-17 22:06N 37°50' E 025°42'1 8.6
2018-Feb-17 21:59N 37°49' E 025°41'4 8.6
2018-Feb-17 21:30N 37°47' E 025°37'4 8.3
2018-Feb-17 21:01N 37°44' E 025°33'4 8.0
2018-Feb-17 20:30N 37°41' E 025°30'4 7.7
2018-Feb-17 20:00N 37°39' E 025°26'4 7.5
2018-Feb-17 19:31N 37°36' E 025°23'4 7.2
2018-Feb-17 19:00N 37°34' E 025°19'3 6.9
2018-Feb-17 18:30N 37°31' E 025°16'4 7.2
2018-Feb-17 18:01N 37°29' E 025°12'4 7.6
2018-Feb-17 17:30N 37°27' E 025°08'4 7.8
2018-Feb-17 17:00N 37°24' E 025°05'4 7.4
2018-Feb-17 16:31N 37°22' E 025°01'4 8.0
2018-Feb-17 16:00N 37°20' E 024°57'4 9.0
2018-Feb-17 15:30N 37°17' E 024°52'4 8.7
2018-Feb-17 15:01N 37°15' E 024°48'  
2018-Feb-13 22:43N 44°44' E 012°56'3 9.6
2018-Feb-13 22:26N 44°47' E 012°54'4 9.7
2018-Feb-13 21:58N 44°50' E 012°51'5 9.7
2018-Feb-13 21:30N 44°54' E 012°48'5 9.7
2018-Feb-13 21:00N 44°58' E 012°44'5 9.5
2018-Feb-13 20:30N 45°02' E 012°41'5 9.3
2018-Feb-13 20:00N 45°07' E 012°38'5 9.1
2018-Feb-13 19:30N 45°10' E 012°34'5 9.1
2018-Feb-13 19:00N 45°14' E 012°30'5 9.2
2018-Feb-13 18:31N 45°17' E 012°26'5 8.7
2018-Feb-13 18:00N 45°20' E 012°20'4 7.6
2018-Feb-13 17:30N 45°21' E 012°15'4 8.1
2018-Feb-13 16:59N 45°25' E 012°16'3 5.7
2018-Feb-13 16:30N 45°28' E 012°14'0 0.4
2018-Feb-13 15:58N 45°28' E 012°14'0 0.0
2018-Feb-13 15:19N 45°28' E 012°14'0 0.0
2018-Feb-13 14:58N 45°28' E 012°14'0 0.0
2018-Feb-13 14:25N 45°28' E 012°14'0 0.0
2018-Feb-13 13:58N 45°28' E 012°14'0 0.0
2018-Feb-13 13:28N 45°28' E 012°14'0 0.0
2018-Feb-13 12:58N 45°28' E 012°14'0 0.0
2018-Feb-13 12:25N 45°28' E 012°14'0 0.0
2018-Feb-13 11:58N 45°28' E 012°14'0 0.0
2018-Feb-13 11:30N 45°28' E 012°14'0 0.0
2018-Feb-13 11:00N 45°28' E 012°14'0 0.0
2018-Feb-13 07:45N 45°28' E 012°14'0 0.0
2018-Feb-13 07:30N 45°28' E 012°14'0 0.0
2018-Feb-13 07:00N 45°28' E 012°14'0 0.0
2018-Feb-13 06:30N 45°28' E 012°14'0 0.0
2018-Feb-13 06:00N 45°28' E 012°14'0 0.0
2018-Feb-13 05:27N 45°28' E 012°14'0 0.0
2018-Feb-13 05:00N 45°28' E 012°14'0 0.0
2018-Feb-13 04:30N 45°28' E 012°14'0 0.0
2018-Feb-13 04:00N 45°28' E 012°14'0 0.0
2018-Feb-13 03:30N 45°28' E 012°14'0 0.0
2018-Feb-13 03:00N 45°28' E 012°14'0 0.0
2018-Feb-13 02:30N 45°28' E 012°14'0 0.0
2018-Feb-13 02:00N 45°28' E 012°14'0 0.0
2018-Feb-13 01:30N 45°28' E 012°14'0 0.0
2018-Feb-13 01:00N 45°28' E 012°14'0 0.0
2018-Feb-13 00:30N 45°28' E 012°14'0 0.0
2018-Feb-13 00:00N 45°28' E 012°14'0 0.0
2018-Feb-12 23:30N 45°28' E 012°14'0 0.0
2018-Feb-12 23:00N 45°28' E 012°14'0 0.0
2018-Feb-12 22:30N 45°28' E 012°14'0 0.0
2018-Feb-12 22:00N 45°28' E 012°14'0 0.0
2018-Feb-12 21:30N 45°28' E 012°14'0 0.0
2018-Feb-12 21:00N 45°28' E 012°14'0 0.0
2018-Feb-12 20:30N 45°28' E 012°14'0 0.0
2018-Feb-12 20:00N 45°28' E 012°14'0 0.0
2018-Feb-12 19:30N 45°28' E 012°14'0 0.0
2018-Feb-12 19:00N 45°28' E 012°14'0 0.0
2018-Feb-12 18:30N 45°28' E 012°14'0 0.0
2018-Feb-12 18:00N 45°28' E 012°14'0 0.0
2018-Feb-12 17:30N 45°28' E 012°14'0 0.0
2018-Feb-12 17:00N 45°28' E 012°14'0 0.0
2018-Feb-12 16:30N 45°28' E 012°14'0 0.0
2018-Feb-12 15:36N 45°28' E 012°14'0 0.0
2018-Feb-12 15:12N 45°28' E 012°14'0 0.0
2018-Feb-12 15:00N 45°28' E 012°14'0 0.0
2018-Feb-12 13:51N 45°28' E 012°14'0 0.0
2018-Feb-12 13:30N 45°28' E 012°14'0 0.0
2018-Feb-12 12:57N 45°28' E 012°14'0 0.0
2018-Feb-12 12:09N 45°28' E 012°14'0 0.0
2018-Feb-12 07:49N 45°28' E 012°14'0 0.0
2018-Feb-12 07:29N 45°28' E 012°14'0 0.0
2018-Feb-12 07:00N 45°28' E 012°14'0 0.0
2018-Feb-12 06:30N 45°28' E 012°14'0 0.0
2018-Feb-12 05:56N 45°28' E 012°14'0 0.0
2018-Feb-12 05:29N 45°28' E 012°14'0 0.0
2018-Feb-12 04:59N 45°28' E 012°14'0 0.0
2018-Feb-12 04:30N 45°28' E 012°14'0 0.0
2018-Feb-12 03:59N 45°28' E 012°14'0 0.0
2018-Feb-12 03:30N 45°28' E 012°14'0 0.0
2018-Feb-12 03:00N 45°28' E 012°14'0 0.0
2018-Feb-12 02:29N 45°28' E 012°14'0 0.0
2018-Feb-12 02:00N 45°28' E 012°14'0 0.0
2018-Feb-12 01:30N 45°28' E 012°14'0 0.0
2018-Feb-12 01:00N 45°28' E 012°14'0 0.0
2018-Feb-12 00:30N 45°28' E 012°14'0 0.0
2018-Feb-12 00:00N 45°28' E 012°14'0 0.0
2018-Feb-11 23:30N 45°28' E 012°14'0 0.0
2018-Feb-11 23:00N 45°28' E 012°14'0 0.0
2018-Feb-11 22:30N 45°28' E 012°14'0 0.0
2018-Feb-11 21:58N 45°28' E 012°14'0 0.0
2018-Feb-11 21:30N 45°28' E 012°14'0 0.0
2018-Feb-11 21:00N 45°28' E 012°14'0 0.0
2018-Feb-11 20:30N 45°28' E 012°14'0 0.0
2018-Feb-11 20:01N 45°28' E 012°14'0 0.0
2018-Feb-11 19:30N 45°28' E 012°14'0 0.0
2018-Feb-11 19:00N 45°28' E 012°14'0 0.0
2018-Feb-11 18:30N 45°28' E 012°14'0 0.0
2018-Feb-11 18:00N 45°28' E 012°14'0 0.0
2018-Feb-11 17:30N 45°28' E 012°14'0 0.0
2018-Feb-11 17:00N 45°28' E 012°14'0 0.0
2018-Feb-11 16:24N 45°28' E 012°14'0 0.0
2018-Feb-11 15:56N 45°28' E 012°14'0 0.0
2018-Feb-11 15:30N 45°28' E 012°14'0 0.0
2018-Feb-11 14:32N 45°28' E 012°14'0 0.0
2018-Feb-11 14:29N 45°28' E 012°14'0 0.0
2018-Feb-11 14:00N 45°28' E 012°14'0 0.0
2018-Feb-11 13:30N 45°28' E 012°14'0 0.0
2018-Feb-11 13:00N 45°28' E 012°14'0 0.0
2018-Feb-11 12:29N 45°28' E 012°14'0 0.0
2018-Feb-11 12:00N 45°28' E 012°14'0 0.0
2018-Feb-11 11:30N 45°28' E 012°14'0 0.0
2018-Feb-11 10:59N 45°28' E 012°14'0 0.0
2018-Feb-11 10:30N 45°28' E 012°14'0 0.0
2018-Feb-11 09:59N 45°28' E 012°14'0 0.0
2018-Feb-11 09:29N 45°28' E 012°14'0 0.0
2018-Feb-11 09:00N 45°28' E 012°14'0 0.0
2018-Feb-11 08:29N 45°28' E 012°14'0 0.0
2018-Feb-11 08:00N 45°28' E 012°14'0 0.0
2018-Feb-11 07:30N 45°28' E 012°14'0 0.0
2018-Feb-11 07:00N 45°28' E 012°14'0 0.0
2018-Feb-11 06:30N 45°28' E 012°14'0 0.0
2018-Feb-11 06:00N 45°28' E 012°14'0 0.0
2018-Feb-11 05:27N 45°28' E 012°14'0 0.0
2018-Feb-11 05:00N 45°28' E 012°14'0 0.0
2018-Feb-11 04:30N 45°28' E 012°14'0 0.0
2018-Feb-11 04:01N 45°28' E 012°14'0 0.0
2018-Feb-11 03:31N 45°28' E 012°14'0 0.0
2018-Feb-11 03:00N 45°28' E 012°14'0 0.0
2018-Feb-11 02:30N 45°28' E 012°14'0 0.0
2018-Feb-11 02:00N 45°28' E 012°14'0 0.0
2018-Feb-11 01:30N 45°28' E 012°14'0 0.0
2018-Feb-11 00:55N 45°28' E 012°14'0 0.0
2018-Feb-11 00:30N 45°28' E 012°14'0 0.0
2018-Feb-11 00:00N 45°28' E 012°14'0 0.0
2018-Feb-10 23:30N 45°28' E 012°14'0 0.0
2018-Feb-10 22:52N 45°28' E 012°14'0 0.0
2018-Feb-10 22:22N 45°28' E 012°14'0 0.0
2018-Feb-10 21:52N 45°28' E 012°14'0 0.0
2018-Feb-10 21:29N 45°28' E 012°14'0 0.0
2018-Feb-10 21:00N 45°28' E 012°14'0 0.0
2018-Feb-10 20:31N 45°28' E 012°14'0 0.0
2018-Feb-10 20:00N 45°28' E 012°14'0 0.0
2018-Feb-10 19:30N 45°28' E 012°14'0 0.0
2018-Feb-10 18:59N 45°28' E 012°14'0 0.0
2018-Feb-10 18:30N 45°28' E 012°14'0 0.0
2018-Feb-10 17:59N 45°28' E 012°14'0 0.0
2018-Feb-10 17:30N 45°28' E 012°14'0 0.0
2018-Feb-10 17:00N 45°28' E 012°14'0 0.0
2018-Feb-10 16:30N 45°28' E 012°14'0 0.0
2018-Feb-10 15:54N 45°28' E 012°14'0 0.0
2018-Feb-10 15:30N 45°28' E 012°14'0 0.0
2018-Feb-10 14:59N 45°28' E 012°14'0 0.0
2018-Feb-10 14:30N 45°28' E 012°14'0 0.0
2018-Feb-10 14:00N 45°28' E 012°14'0 0.0
2018-Feb-10 13:30N 45°28' E 012°14'0 0.0
2018-Feb-10 13:00N 45°28' E 012°14'0 0.0
2018-Feb-10 12:30N 45°28' E 012°14'0 0.0
2018-Feb-10 12:00N 45°28' E 012°14'0 0.0
2018-Feb-10 11:30N 45°28' E 012°14'0 0.0
2018-Feb-10 11:00N 45°28' E 012°14'0 0.0
2018-Feb-10 10:30N 45°28' E 012°14'0 0.0
2018-Feb-10 10:00N 45°28' E 012°14'0 0.0
2018-Feb-10 09:30N 45°28' E 012°14'1 1.6
2018-Feb-10 09:00N 45°27' E 012°14'0 0.2
2018-Feb-10 08:28N 45°28' E 012°14'1 1.8
2018-Feb-10 07:55N 45°27' E 012°15'0 0.0
2018-Feb-10 07:28N 45°27' E 012°15'0 0.0
2018-Feb-10 07:01N 45°27' E 012°15'0 0.0
2018-Feb-10 06:31N 45°27' E 012°15'0 0.0
2018-Feb-10 05:58N 45°27' E 012°15'0 0.0
2018-Feb-10 05:30N 45°27' E 012°15'0 0.0
2018-Feb-10 05:00N 45°27' E 012°15'0 0.0
2018-Feb-10 04:30N 45°27' E 012°15'0 0.0
2018-Feb-10 04:00N 45°27' E 012°15'0 0.0
2018-Feb-10 03:30N 45°27' E 012°15'0 0.0
2018-Feb-10 03:00N 45°27' E 012°15'0 0.0
2018-Feb-10 02:27N 45°27' E 012°15'0 0.0
2018-Feb-10 02:00N 45°27' E 012°15'0 0.0
2018-Feb-10 01:30N 45°27' E 012°15'0 0.0
2018-Feb-10 01:00N 45°27' E 012°15'0 0.0
2018-Feb-10 00:30N 45°27' E 012°15'0 0.0
2018-Feb-10 00:00N 45°27' E 012°15'0 0.0
2018-Feb-09 23:30N 45°27' E 012°15'0 0.0
2018-Feb-09 23:00N 45°27' E 012°15'0 0.0
2018-Feb-09 22:45N 45°27' E 012°15'0 0.0
2018-Feb-08 01:29N 45°27' E 012°15'0 0.0
2018-Feb-08 00:59N 45°27' E 012°15'0 0.0
2018-Feb-08 00:29N 45°27' E 012°15'0 0.0
2018-Feb-07 23:59N 45°27' E 012°15'0 0.0
2018-Feb-07 23:29N 45°27' E 012°15'0 0.0
2018-Feb-07 22:59N 45°27' E 012°15'0 0.0
2018-Feb-07 22:29N 45°27' E 012°15'  
Track history (hours):
 
Tides and Currents Weather Stations Pressure Air Temp Water Temp Dewpoint Dewpoint Depression Visibility Wind Speed Wind Dir Waves Ship Positions

Feyz Commander

Last reported at 2018-Feb-17 22:06 UTC. Time now 2018-Feb-24 02:36 UTC.
Position N 37°50' E 025°42'.

Length 93 m; draft 6 m.

Type: Cargo ship. MMSI: 357297000.

Date/timePositionNaut miles runAvg speedWind from/ knotsBaromVisibWave heightAir tempDewpointWater temp
2018-Feb-17 22:06N 37°50' E 025°42'1 8.6
2018-Feb-17 21:59N 37°49' E 025°41'4 8.6
2018-Feb-17 21:30N 37°47' E 025°37'4 8.3
2018-Feb-17 21:01N 37°44' E 025°33'4 8.0
2018-Feb-17 20:30N 37°41' E 025°30'4 7.7
2018-Feb-17 20:00N 37°39' E 025°26'4 7.5
2018-Feb-17 19:31N 37°36' E 025°23'4 7.2
2018-Feb-17 19:00N 37°34' E 025°19'3 6.9
2018-Feb-17 18:30N 37°31' E 025°16'4 7.2
2018-Feb-17 18:01N 37°29' E 025°12'4 7.6
2018-Feb-17 17:30N 37°27' E 025°08'4 7.8
2018-Feb-17 17:00N 37°24' E 025°05'4 7.4
2018-Feb-17 16:31N 37°22' E 025°01'4 8.0
2018-Feb-17 16:00N 37°20' E 024°57'4 9.0
2018-Feb-17 15:30N 37°17' E 024°52'4 8.7
2018-Feb-17 15:01N 37°15' E 024°48'  
2018-Feb-13 22:43N 44°44' E 012°56'3 9.6
2018-Feb-13 22:26N 44°47' E 012°54'4 9.7
2018-Feb-13 21:58N 44°50' E 012°51'5 9.7
2018-Feb-13 21:30N 44°54' E 012°48'5 9.7
2018-Feb-13 21:00N 44°58' E 012°44'5 9.5
2018-Feb-13 20:30N 45°02' E 012°41'5 9.3
2018-Feb-13 20:00N 45°07' E 012°38'5 9.1
2018-Feb-13 19:30N 45°10' E 012°34'5 9.1
2018-Feb-13 19:00N 45°14' E 012°30'5 9.2
2018-Feb-13 18:31N 45°17' E 012°26'5 8.7
2018-Feb-13 18:00N 45°20' E 012°20'4 7.6
2018-Feb-13 17:30N 45°21' E 012°15'4 8.1
2018-Feb-13 16:59N 45°25' E 012°16'3 5.7
2018-Feb-13 16:30N 45°28' E 012°14'0 0.4
2018-Feb-13 15:58N 45°28' E 012°14'0 0.0
2018-Feb-13 15:19N 45°28' E 012°14'0 0.0
2018-Feb-13 14:58N 45°28' E 012°14'0 0.0
2018-Feb-13 14:25N 45°28' E 012°14'0 0.0
2018-Feb-13 13:58N 45°28' E 012°14'0 0.0
2018-Feb-13 13:28N 45°28' E 012°14'0 0.0
2018-Feb-13 12:58N 45°28' E 012°14'0 0.0
2018-Feb-13 12:25N 45°28' E 012°14'0 0.0
2018-Feb-13 11:58N 45°28' E 012°14'0 0.0
2018-Feb-13 11:30N 45°28' E 012°14'0 0.0
2018-Feb-13 11:00N 45°28' E 012°14'0 0.0
2018-Feb-13 07:45N 45°28' E 012°14'0 0.0
2018-Feb-13 07:30N 45°28' E 012°14'0 0.0
2018-Feb-13 07:00N 45°28' E 012°14'0 0.0
2018-Feb-13 06:30N 45°28' E 012°14'0 0.0
2018-Feb-13 06:00N 45°28' E 012°14'0 0.0
2018-Feb-13 05:27N 45°28' E 012°14'0 0.0
2018-Feb-13 05:00N 45°28' E 012°14'0 0.0
2018-Feb-13 04:30N 45°28' E 012°14'0 0.0
2018-Feb-13 04:00N 45°28' E 012°14'0 0.0
2018-Feb-13 03:30N 45°28' E 012°14'0 0.0
2018-Feb-13 03:00N 45°28' E 012°14'0 0.0
2018-Feb-13 02:30N 45°28' E 012°14'0 0.0
2018-Feb-13 02:00N 45°28' E 012°14'0 0.0
2018-Feb-13 01:30N 45°28' E 012°14'0 0.0
2018-Feb-13 01:00N 45°28' E 012°14'0 0.0
2018-Feb-13 00:30N 45°28' E 012°14'0 0.0
2018-Feb-13 00:00N 45°28' E 012°14'0 0.0
2018-Feb-12 23:30N 45°28' E 012°14'0 0.0
2018-Feb-12 23:00N 45°28' E 012°14'0 0.0
2018-Feb-12 22:30N 45°28' E 012°14'0 0.0
2018-Feb-12 22:00N 45°28' E 012°14'0 0.0
2018-Feb-12 21:30N 45°28' E 012°14'0 0.0
2018-Feb-12 21:00N 45°28' E 012°14'0 0.0
2018-Feb-12 20:30N 45°28' E 012°14'0 0.0
2018-Feb-12 20:00N 45°28' E 012°14'0 0.0
2018-Feb-12 19:30N 45°28' E 012°14'0 0.0
2018-Feb-12 19:00N 45°28' E 012°14'0 0.0
2018-Feb-12 18:30N 45°28' E 012°14'0 0.0
2018-Feb-12 18:00N 45°28' E 012°14'0 0.0
2018-Feb-12 17:30N 45°28' E 012°14'0 0.0
2018-Feb-12 17:00N 45°28' E 012°14'0 0.0
2018-Feb-12 16:30N 45°28' E 012°14'0 0.0
2018-Feb-12 15:36N 45°28' E 012°14'0 0.0
2018-Feb-12 15:12N 45°28' E 012°14'0 0.0
2018-Feb-12 15:00N 45°28' E 012°14'0 0.0
2018-Feb-12 13:51N 45°28' E 012°14'0 0.0
2018-Feb-12 13:30N 45°28' E 012°14'0 0.0
2018-Feb-12 12:57N 45°28' E 012°14'0 0.0
2018-Feb-12 12:09N 45°28' E 012°14'0 0.0
2018-Feb-12 07:49N 45°28' E 012°14'0 0.0
2018-Feb-12 07:29N 45°28' E 012°14'0 0.0
2018-Feb-12 07:00N 45°28' E 012°14'0 0.0
2018-Feb-12 06:30N 45°28' E 012°14'0 0.0
2018-Feb-12 05:56N 45°28' E 012°14'0 0.0
2018-Feb-12 05:29N 45°28' E 012°14'0 0.0
2018-Feb-12 04:59N 45°28' E 012°14'0 0.0
2018-Feb-12 04:30N 45°28' E 012°14'0 0.0
2018-Feb-12 03:59N 45°28' E 012°14'0 0.0
2018-Feb-12 03:30N 45°28' E 012°14'0 0.0
2018-Feb-12 03:00N 45°28' E 012°14'0 0.0
2018-Feb-12 02:29N 45°28' E 012°14'0 0.0
2018-Feb-12 02:00N 45°28' E 012°14'0 0.0
2018-Feb-12 01:30N 45°28' E 012°14'0 0.0
2018-Feb-12 01:00N 45°28' E 012°14'0 0.0
2018-Feb-12 00:30N 45°28' E 012°14'0 0.0
2018-Feb-12 00:00N 45°28' E 012°14'0 0.0
2018-Feb-11 23:30N 45°28' E 012°14'0 0.0
2018-Feb-11 23:00N 45°28' E 012°14'0 0.0
2018-Feb-11 22:30N 45°28' E 012°14'0 0.0
2018-Feb-11 21:58N 45°28' E 012°14'0 0.0
2018-Feb-11 21:30N 45°28' E 012°14'0 0.0
2018-Feb-11 21:00N 45°28' E 012°14'0 0.0
2018-Feb-11 20:30N 45°28' E 012°14'0 0.0
2018-Feb-11 20:01N 45°28' E 012°14'0 0.0
2018-Feb-11 19:30N 45°28' E 012°14'0 0.0
2018-Feb-11 19:00N 45°28' E 012°14'0 0.0
2018-Feb-11 18:30N 45°28' E 012°14'0 0.0
2018-Feb-11 18:00N 45°28' E 012°14'0 0.0
2018-Feb-11 17:30N 45°28' E 012°14'0 0.0
2018-Feb-11 17:00N 45°28' E 012°14'0 0.0
2018-Feb-11 16:24N 45°28' E 012°14'0 0.0
2018-Feb-11 15:56N 45°28' E 012°14'0 0.0
2018-Feb-11 15:30N 45°28' E 012°14'0 0.0
2018-Feb-11 14:32N 45°28' E 012°14'0 0.0
2018-Feb-11 14:29N 45°28' E 012°14'0 0.0
2018-Feb-11 14:00N 45°28' E 012°14'0 0.0
2018-Feb-11 13:30N 45°28' E 012°14'0 0.0
2018-Feb-11 13:00N 45°28' E 012°14'0 0.0
2018-Feb-11 12:29N 45°28' E 012°14'0 0.0
2018-Feb-11 12:00N 45°28' E 012°14'0 0.0
2018-Feb-11 11:30N 45°28' E 012°14'0 0.0
2018-Feb-11 10:59N 45°28' E 012°14'0 0.0
2018-Feb-11 10:30N 45°28' E 012°14'0 0.0
2018-Feb-11 09:59N 45°28' E 012°14'0 0.0
2018-Feb-11 09:29N 45°28' E 012°14'0 0.0
2018-Feb-11 09:00N 45°28' E 012°14'0 0.0
2018-Feb-11 08:29N 45°28' E 012°14'0 0.0
2018-Feb-11 08:00N 45°28' E 012°14'0 0.0
2018-Feb-11 07:30N 45°28' E 012°14'0 0.0
2018-Feb-11 07:00N 45°28' E 012°14'0 0.0
2018-Feb-11 06:30N 45°28' E 012°14'0 0.0
2018-Feb-11 06:00N 45°28' E 012°14'0 0.0
2018-Feb-11 05:27N 45°28' E 012°14'0 0.0
2018-Feb-11 05:00N 45°28' E 012°14'0 0.0
2018-Feb-11 04:30N 45°28' E 012°14'0 0.0
2018-Feb-11 04:01N 45°28' E 012°14'0 0.0
2018-Feb-11 03:31N 45°28' E 012°14'0 0.0
2018-Feb-11 03:00N 45°28' E 012°14'0 0.0
2018-Feb-11 02:30N 45°28' E 012°14'0 0.0
2018-Feb-11 02:00N 45°28' E 012°14'0 0.0
2018-Feb-11 01:30N 45°28' E 012°14'0 0.0
2018-Feb-11 00:55N 45°28' E 012°14'0 0.0
2018-Feb-11 00:30N 45°28' E 012°14'0 0.0
2018-Feb-11 00:00N 45°28' E 012°14'0 0.0
2018-Feb-10 23:30N 45°28' E 012°14'0 0.0
2018-Feb-10 22:52N 45°28' E 012°14'0 0.0
2018-Feb-10 22:22N 45°28' E 012°14'0 0.0
2018-Feb-10 21:52N 45°28' E 012°14'0 0.0
2018-Feb-10 21:29N 45°28' E 012°14'0 0.0
2018-Feb-10 21:00N 45°28' E 012°14'0 0.0
2018-Feb-10 20:31N 45°28' E 012°14'0 0.0
2018-Feb-10 20:00N 45°28' E 012°14'0 0.0
2018-Feb-10 19:30N 45°28' E 012°14'0 0.0
2018-Feb-10 18:59N 45°28' E 012°14'0 0.0
2018-Feb-10 18:30N 45°28' E 012°14'0 0.0
2018-Feb-10 17:59N 45°28' E 012°14'0 0.0
2018-Feb-10 17:30N 45°28' E 012°14'0 0.0
2018-Feb-10 17:00N 45°28' E 012°14'0 0.0
2018-Feb-10 16:30N 45°28' E 012°14'0 0.0
2018-Feb-10 15:54N 45°28' E 012°14'0 0.0
2018-Feb-10 15:30N 45°28' E 012°14'0 0.0
2018-Feb-10 14:59N 45°28' E 012°14'0 0.0
2018-Feb-10 14:30N 45°28' E 012°14'0 0.0
2018-Feb-10 14:00N 45°28' E 012°14'0 0.0
2018-Feb-10 13:30N 45°28' E 012°14'0 0.0
2018-Feb-10 13:00N 45°28' E 012°14'0 0.0
2018-Feb-10 12:30N 45°28' E 012°14'0 0.0
2018-Feb-10 12:00N 45°28' E 012°14'0 0.0
2018-Feb-10 11:30N 45°28' E 012°14'0 0.0
2018-Feb-10 11:00N 45°28' E 012°14'0 0.0
2018-Feb-10 10:30N 45°28' E 012°14'0 0.0
2018-Feb-10 10:00N 45°28' E 012°14'0 0.0
2018-Feb-10 09:30N 45°28' E 012°14'1 1.6
2018-Feb-10 09:00N 45°27' E 012°14'0 0.2
2018-Feb-10 08:28N 45°28' E 012°14'1 1.8
2018-Feb-10 07:55N 45°27' E 012°15'0 0.0
2018-Feb-10 07:28N 45°27' E 012°15'0 0.0
2018-Feb-10 07:01N 45°27' E 012°15'0 0.0
2018-Feb-10 06:31N 45°27' E 012°15'0 0.0
2018-Feb-10 05:58N 45°27' E 012°15'0 0.0
2018-Feb-10 05:30N 45°27' E 012°15'0 0.0
2018-Feb-10 05:00N 45°27' E 012°15'0 0.0
2018-Feb-10 04:30N 45°27' E 012°15'0 0.0
2018-Feb-10 04:00N 45°27' E 012°15'0 0.0
2018-Feb-10 03:30N 45°27' E 012°15'0 0.0
2018-Feb-10 03:00N 45°27' E 012°15'0 0.0
2018-Feb-10 02:27N 45°27' E 012°15'0 0.0
2018-Feb-10 02:00N 45°27' E 012°15'0 0.0
2018-Feb-10 01:30N 45°27' E 012°15'0 0.0
2018-Feb-10 01:00N 45°27' E 012°15'0 0.0
2018-Feb-10 00:30N 45°27' E 012°15'0 0.0
2018-Feb-10 00:00N 45°27' E 012°15'0 0.0
2018-Feb-09 23:30N 45°27' E 012°15'0 0.0
2018-Feb-09 23:00N 45°27' E 012°15'0 0.0
2018-Feb-09 22:45N 45°27' E 012°15'0 0.0
2018-Feb-08 01:29N 45°27' E 012°15'0 0.0
2018-Feb-08 00:59N 45°27' E 012°15'0 0.0
2018-Feb-08 00:29N 45°27' E 012°15'0 0.0
2018-Feb-07 23:59N 45°27' E 012°15'0 0.0
2018-Feb-07 23:29N 45°27' E 012°15'0 0.0
2018-Feb-07 22:59N 45°27' E 012°15'0 0.0
2018-Feb-07 22:29N 45°27' E 012°15'  

Dump ship's entire track history